sensor_id;sensor_type;location;lat;lon;timestamp;P1;durP1;ratioP1;P2;durP2;ratioP2
15557;SDS011;7880;50.110;9.372;2023-05-27T00:03:16;10.346153846153847;;;2.7;;
15557;SDS011;7880;50.110;9.372;2023-05-27T00:08:21;9.599999999999998;;;2.8;;
15557;SDS011;7880;50.110;9.372;2023-05-27T00:13:24;7.10769230769231;;;2.8;;
15557;SDS011;7880;50.110;9.372;2023-05-27T00:18:32;9.338461538461539;;;2.630769230769231;;
15557;SDS011;7880;50.110;9.372;2023-05-27T00:23:36;9.376923076923076;;;3.169230769230769;;
15557;SDS011;7880;50.110;9.372;2023-05-27T00:28:42;5.869230769230768;;;2.230769230769231;;
15557;SDS011;7880;50.110;9.372;2023-05-27T00:33:48;5.6;;;2.7;;
15557;SDS011;7880;50.110;9.372;2023-05-27T00:38:51;11.069230769230767;;;4.269230769230769;;
15557;SDS011;7880;50.110;9.372;2023-05-27T00:44:00;11.007692307692308;;;2.1999999999999997;;
15557;SDS011;7880;50.110;9.372;2023-05-27T00:49:02;7.038461538461541;;;3.169230769230769;;
15557;SDS011;7880;50.110;9.372;2023-05-27T00:54:12;12.646153846153847;;;3.130769230769232;;
15557;SDS011;7880;50.110;9.372;2023-05-27T00:59:14;10.930769230769233;;;2.6000000000000005;;
15557;SDS011;7880;50.110;9.372;2023-05-27T01:04:20;7.369230769230768;;;2.8;;
15557;SDS011;7880;50.110;9.372;2023-05-27T01:09:26;10.06153846153846;;;2.899999999999999;;
15557;SDS011;7880;50.110;9.372;2023-05-27T01:14:30;7.938461538461538;;;2.8;;
15557;SDS011;7880;50.110;9.372;2023-05-27T01:19:44;5.746153846153845;;;2.430769230769231;;
15557;SDS011;7880;50.110;9.372;2023-05-27T01:24:41;10.13846153846154;;;2.8;;
15557;SDS011;7880;50.110;9.372;2023-05-27T01:29:46;5.730769230769231;;;2.630769230769231;;
15557;SDS011;7880;50.110;9.372;2023-05-27T01:34:53;5.1000000000000005;;;2.6000000000000005;;
15557;SDS011;7880;50.110;9.372;2023-05-27T01:39:58;7.076923076923077;;;2.7692307692307705;;
15557;SDS011;7880;50.110;9.372;2023-05-27T01:45:03;5.884615384615385;;;2.330769230769231;;
15557;SDS011;7880;50.110;9.372;2023-05-27T01:50:09;8.638461538461538;;;2.530769230769231;;
15557;SDS011;7880;50.110;9.372;2023-05-27T01:55:17;6.338461538461538;;;2.230769230769231;;
15557;SDS011;7880;50.110;9.372;2023-05-27T02:00:21;8.353846153846156;;;2.630769230769231;;
15557;SDS011;7880;50.110;9.372;2023-05-27T02:05:28;7.946153846153844;;;2.269230769230769;;
15557;SDS011;7880;50.110;9.372;2023-05-27T02:10:32;15.71538461538462;;;2.969230769230769;;
15557;SDS011;7880;50.110;9.372;2023-05-27T02:15:41;11.71538461538462;;;2.8;;
15557;SDS011;7880;50.110;9.372;2023-05-27T02:20:44;12.538461538461544;;;2.8;;
15557;SDS011;7880;50.110;9.372;2023-05-27T02:25:48;8.86923076923077;;;2.630769230769231;;
15557;SDS011;7880;50.110;9.372;2023-05-27T02:30:53;7.646153846153845;;;2.6384615384615384;;
15557;SDS011;7880;50.110;9.372;2023-05-27T02:36:00;6.753846153846153;;;2.7307692307692295;;
15557;SDS011;7880;50.110;9.372;2023-05-27T02:41:04;12.469230769230771;;;3.100000000000001;;
15557;SDS011;7880;50.110;9.372;2023-05-27T02:46:10;10.969230769230771;;;2.8;;
15557;SDS011;7880;50.110;9.372;2023-05-27T02:51:21;12.66923076923077;;;3.7000000000000006;;
15557;SDS011;7880;50.110;9.372;2023-05-27T02:56:21;11.446153846153843;;;3.100000000000001;;
15557;SDS011;7880;50.110;9.372;2023-05-27T03:01:27;8.184615384615382;;;1.8999999999999997;;
15557;SDS011;7880;50.110;9.372;2023-05-27T03:06:33;9.746153846153847;;;3.06923076923077;;
15557;SDS011;7880;50.110;9.372;2023-05-27T03:11:40;9.853846153846156;;;2.6000000000000005;;
15557;SDS011;7880;50.110;9.372;2023-05-27T03:16:47;8.746153846153847;;;2.0;;
15557;SDS011;7880;50.110;9.372;2023-05-27T03:22:04;7.115384615384613;;;2.1538461538461537;;
15557;SDS011;7880;50.110;9.372;2023-05-27T03:27:01;8.015384615384615;;;2.530769230769231;;
15557;SDS011;7880;50.110;9.372;2023-05-27T03:32:07;14.753846153846151;;;2.899999999999999;;
15557;SDS011;7880;50.110;9.372;2023-05-27T03:37:09;12.846153846153843;;;2.899999999999999;;
15557;SDS011;7880;50.110;9.372;2023-05-27T03:42:15;7.976923076923077;;;2.3999999999999995;;
15557;SDS011;7880;50.110;9.372;2023-05-27T03:47:21;12.884615384615385;;;2.369230769230769;;
15557;SDS011;7880;50.110;9.372;2023-05-27T03:52:26;8.830769230769231;;;2.5;;
15557;SDS011;7880;50.110;9.372;2023-05-27T03:57:34;8.476923076923077;;;3.469230769230769;;
15557;SDS011;7880;50.110;9.372;2023-05-27T04:02:39;7.907692307692309;;;2.1999999999999997;;
15557;SDS011;7880;50.110;9.372;2023-05-27T04:07:41;14.684615384615382;;;2.7;;
15557;SDS011;7880;50.110;9.372;2023-05-27T04:12:17;10.315384615384618;;;2.969230769230769;;
15557;SDS011;7880;50.110;9.372;2023-05-27T04:17:21;8.323076923076922;;;2.530769230769231;;
15557;SDS011;7880;50.110;9.372;2023-05-27T04:22:26;8.99230769230769;;;2.661538461538462;;
15557;SDS011;7880;50.110;9.372;2023-05-27T04:27:32;13.100000000000001;;;3.2;;
15557;SDS011;7880;50.110;9.372;2023-05-27T04:32:41;6.907692307692309;;;2.1000000000000005;;
15557;SDS011;7880;50.110;9.372;2023-05-27T04:37:44;10.969230769230771;;;2.392307692307693;;
15557;SDS011;7880;50.110;9.372;2023-05-27T04:42:49;8.976923076923077;;;2.8;;
15557;SDS011;7880;50.110;9.372;2023-05-27T04:47:55;12.176923076923076;;;2.230769230769231;;
15557;SDS011;7880;50.110;9.372;2023-05-27T04:53:03;4.93076923076923;;;2.6000000000000005;;
15557;SDS011;7880;50.110;9.372;2023-05-27T04:58:06;10.323076923076924;;;2.3000000000000003;;
15557;SDS011;7880;50.110;9.372;2023-05-27T05:03:20;9.761538461538464;;;2.3000000000000003;;
15557;SDS011;7880;50.110;9.372;2023-05-27T05:08:21;11.507692307692308;;;2.5;;
15557;SDS011;7880;50.110;9.372;2023-05-27T05:13:29;9.284615384615384;;;3.2;;
15557;SDS011;7880;50.110;9.372;2023-05-27T05:18:29;13.684615384615382;;;3.06923076923077;;
15557;SDS011;7880;50.110;9.372;2023-05-27T05:23:34;12.307692307692308;;;3.6692307692307695;;
15557;SDS011;7880;50.110;9.372;2023-05-27T05:28:40;9.746153846153847;;;2.3000000000000003;;
15557;SDS011;7880;50.110;9.372;2023-05-27T05:33:45;16.615384615384617;;;3.130769230769232;;
15557;SDS011;7880;50.110;9.372;2023-05-27T05:38:54;8.700000000000001;;;2.1999999999999997;;
15557;SDS011;7880;50.110;9.372;2023-05-27T05:43:56;12.8;;;3.0;;
15557;SDS011;7880;50.110;9.372;2023-05-27T05:49:02;5.592307692307691;;;2.1000000000000005;;
15557;SDS011;7880;50.110;9.372;2023-05-27T05:54:08;10.030769230769229;;;2.630769230769231;;
15557;SDS011;7880;50.110;9.372;2023-05-27T05:59:12;12.230769230769235;;;3.56923076923077;;
15557;SDS011;7880;50.110;9.372;2023-05-27T06:04:18;10.623076923076924;;;3.061538461538462;;
15557;SDS011;7880;50.110;9.372;2023-05-27T06:09:25;11.3;;;2.8;;
15557;SDS011;7880;50.110;9.372;2023-05-27T06:14:33;8.307692307692307;;;3.06923076923077;;
15557;SDS011;7880;50.110;9.372;2023-05-27T06:19:36;10.961538461538462;;;3.030769230769231;;
15557;SDS011;7880;50.110;9.372;2023-05-27T06:24:41;13.576923076923073;;;3.600000000000001;;
15557;SDS011;7880;50.110;9.372;2023-05-27T06:29:47;11.369230769230771;;;2.992307692307693;;
15557;SDS011;7880;50.110;9.372;2023-05-27T06:34:53;15.376923076923076;;;3.469230769230769;;
15557;SDS011;7880;50.110;9.372;2023-05-27T06:40:06;10.146153846153844;;;2.5;;
15557;SDS011;7880;50.110;9.372;2023-05-27T06:45:03;10.161538461538461;;;2.4384615384615382;;
15557;SDS011;7880;50.110;9.372;2023-05-27T06:51:57;12.346153846153847;;;3.369230769230768;;
15557;SDS011;7880;50.110;9.372;2023-05-27T06:57:02;11.023076923076927;;;2.8692307692307684;;
15557;SDS011;7880;50.110;9.372;2023-05-27T07:02:07;12.384615384615385;;;3.169230769230769;;
15557;SDS011;7880;50.110;9.372;2023-05-27T07:07:14;10.161538461538461;;;2.7307692307692295;;
15557;SDS011;7880;50.110;9.372;2023-05-27T07:12:18;9.184615384615382;;;2.6000000000000005;;
15557;SDS011;7880;50.110;9.372;2023-05-27T07:17:23;7.36153846153846;;;2.8;;
15557;SDS011;7880;50.110;9.372;2023-05-27T07:22:29;13.71538461538462;;;3.869230769230768;;
15557;SDS011;7880;50.110;9.372;2023-05-27T07:27:34;8.469230769230771;;;2.7;;
15557;SDS011;7880;50.110;9.372;2023-05-27T07:32:45;12.869230769230775;;;2.899999999999999;;
15557;SDS011;7880;50.110;9.372;2023-05-27T07:37:45;9.576923076923078;;;2.899999999999999;;
15557;SDS011;7880;50.110;9.372;2023-05-27T07:42:52;10.200000000000001;;;2.8692307692307684;;
15557;SDS011;7880;50.110;9.372;2023-05-27T07:48:01;9.484615384615383;;;3.100000000000001;;
15557;SDS011;7880;50.110;9.372;2023-05-27T07:53:04;7.56923076923077;;;3.0;;
15557;SDS011;7880;50.110;9.372;2023-05-27T07:58:10;5.730769230769231;;;2.5;;
15557;SDS011;7880;50.110;9.372;2023-05-27T08:03:13;10.546153846153848;;;3.100000000000001;;
15557;SDS011;7880;50.110;9.372;2023-05-27T08:08:16;9.646153846153846;;;2.969230769230769;;
15557;SDS011;7880;50.110;9.372;2023-05-27T08:13:27;8.207692307692307;;;2.7;;
15557;SDS011;7880;50.110;9.372;2023-05-27T08:18:30;9.815384615384618;;;2.669230769230769;;
15557;SDS011;7880;50.110;9.372;2023-05-27T08:23:33;12.36153846153846;;;3.7999999999999994;;
15557;SDS011;7880;50.110;9.372;2023-05-27T08:28:38;8.538461538461538;;;2.5;;
15557;SDS011;7880;50.110;9.372;2023-05-27T08:33:44;7.400000000000001;;;2.7;;
15557;SDS011;7880;50.110;9.372;2023-05-27T08:38:48;8.207692307692307;;;2.5;;
15557;SDS011;7880;50.110;9.372;2023-05-27T08:43:55;8.169230769230769;;;2.430769230769231;;
15557;SDS011;7880;50.110;9.372;2023-05-27T08:48:59;10.36923076923077;;;2.7;;
15557;SDS011;7880;50.110;9.372;2023-05-27T08:54:09;6.576923076923077;;;2.169230769230769;;
15557;SDS011;7880;50.110;9.372;2023-05-27T08:59:08;11.707692307692307;;;2.5;;
15557;SDS011;7880;50.110;9.372;2023-05-27T09:04:14;10.969230769230771;;;2.7;;
15557;SDS011;7880;50.110;9.372;2023-05-27T09:09:19;8.907692307692308;;;2.899999999999999;;
15557;SDS011;7880;50.110;9.372;2023-05-27T09:14:33;7.400000000000001;;;2.5615384615384618;;
15557;SDS011;7880;50.110;9.372;2023-05-27T09:19:22;13.038461538461538;;;3.2;;
15557;SDS011;7880;50.110;9.372;2023-05-27T09:24:30;8.700000000000001;;;2.899999999999999;;
15557;SDS011;7880;50.110;9.372;2023-05-27T09:29:37;7.900000000000001;;;3.2;;
15557;SDS011;7880;50.110;9.372;2023-05-27T09:34:41;14.476923076923072;;;3.399999999999999;;
15557;SDS011;7880;50.110;9.372;2023-05-27T09:39:45;12.315384615384618;;;3.06923076923077;;
15557;SDS011;7880;50.110;9.372;2023-05-27T09:44:50;9.77692307692308;;;2.899999999999999;;
15557;SDS011;7880;50.110;9.372;2023-05-27T09:49:59;10.346153846153847;;;2.369230769230769;;
15557;SDS011;7880;50.110;9.372;2023-05-27T10:01:47;8.076923076923077;;;2.7;;
15557;SDS011;7880;50.110;9.372;2023-05-27T10:06:49;8.23076923076923;;;3.030769230769231;;
15557;SDS011;7880;50.110;9.372;2023-05-27T10:11:56;10.469230769230771;;;2.8;;
15557;SDS011;7880;50.110;9.372;2023-05-27T10:17:02;9.438461538461537;;;2.9692307692307693;;
15557;SDS011;7880;50.110;9.372;2023-05-27T10:22:07;8.292307692307693;;;2.7;;
15557;SDS011;7880;50.110;9.372;2023-05-27T10:27:13;8.492307692307694;;;2.530769230769231;;
15557;SDS011;7880;50.110;9.372;2023-05-27T10:32:18;7.238461538461536;;;2.8;;
15557;SDS011;7880;50.110;9.372;2023-05-27T10:37:26;8.969230769230771;;;3.5;;
15557;SDS011;7880;50.110;9.372;2023-05-27T10:42:28;10.430769230769231;;;2.9615384615384617;;
15557;SDS011;7880;50.110;9.372;2023-05-27T10:47:35;10.069230769230769;;;3.2999999999999994;;
15557;SDS011;7880;50.110;9.372;2023-05-27T10:52:41;5.369230769230768;;;2.1999999999999997;;
15557;SDS011;7880;50.110;9.372;2023-05-27T10:57:47;6.538461538461541;;;2.569230769230769;;
15557;SDS011;7880;50.110;9.372;2023-05-27T11:02:53;9.484615384615383;;;3.7307692307692295;;
15557;SDS011;7880;50.110;9.372;2023-05-27T11:08:00;8.569230769230769;;;3.06923076923077;;
15557;SDS011;7880;50.110;9.372;2023-05-27T11:13:03;8.73076923076923;;;2.792307692307692;;
15557;SDS011;7880;50.110;9.372;2023-05-27T11:18:08;10.77692307692308;;;2.7;;
15557;SDS011;7880;50.110;9.372;2023-05-27T11:23:13;8.86923076923077;;;2.8;;
15557;SDS011;7880;50.110;9.372;2023-05-27T11:28:17;8.638461538461538;;;2.93076923076923;;
15557;SDS011;7880;50.110;9.372;2023-05-27T11:33:29;6.307692307692306;;;2.8;;
15557;SDS011;7880;50.110;9.372;2023-05-27T11:38:27;7.261538461538464;;;2.5;;
15557;SDS011;7880;50.110;9.372;2023-05-27T11:43:33;9.276923076923076;;;3.0;;
15557;SDS011;7880;50.110;9.372;2023-05-27T11:48:38;4.369230769230769;;;2.430769230769231;;
15557;SDS011;7880;50.110;9.372;2023-05-27T11:53:44;11.715384615384615;;;2.6000000000000005;;
15557;SDS011;7880;50.110;9.372;2023-05-27T11:58:49;5.915384615384617;;;2.630769230769231;;
15557;SDS011;7880;50.110;9.372;2023-05-27T12:03:55;10.515384615384615;;;7.5;;
15557;SDS011;7880;50.110;9.372;2023-05-27T12:09:01;7.1461538461538465;;;2.8615384615384616;;
15557;SDS011;7880;50.110;9.372;2023-05-27T12:14:08;6.230769230769233;;;2.3999999999999995;;
15557;SDS011;7880;50.110;9.372;2023-05-27T12:19:12;3.530769230769231;;;2.3000000000000003;;
15557;SDS011;7880;50.110;9.372;2023-05-27T12:24:17;12.584615384615383;;;2.669230769230769;;
15557;SDS011;7880;50.110;9.372;2023-05-27T12:29:26;7.43076923076923;;;2.3999999999999995;;
15557;SDS011;7880;50.110;9.372;2023-05-27T12:34:31;12.661538461538463;;;3.761538461538461;;
15557;SDS011;7880;50.110;9.372;2023-05-27T12:39:35;9.400000000000002;;;3.8230769230769233;;
15557;SDS011;7880;50.110;9.372;2023-05-27T12:44:41;5.207692307692307;;;2.5538461538461545;;
15557;SDS011;7880;50.110;9.372;2023-05-27T12:49:46;6.307692307692306;;;2.1999999999999997;;
15557;SDS011;7880;50.110;9.372;2023-05-27T12:54:51;8.115384615384613;;;3.100000000000001;;
15557;SDS011;7880;50.110;9.372;2023-05-27T13:00:01;22.192307692307683;;;4.299999999999999;;
15557;SDS011;7880;50.110;9.372;2023-05-27T13:05:07;10.576923076923078;;;2.899999999999999;;
15557;SDS011;7880;50.110;9.372;2023-05-27T13:10:12;9.238461538461538;;;2.899999999999999;;
15557;SDS011;7880;50.110;9.372;2023-05-27T13:15:16;5.969230769230771;;;2.8;;
15557;SDS011;7880;50.110;9.372;2023-05-27T13:20:22;5.4;;;2.3000000000000003;;
15557;SDS011;7880;50.110;9.372;2023-05-27T13:25:28;4.661538461538462;;;2.530769230769231;;
15557;SDS011;7880;50.110;9.372;2023-05-27T13:30:32;10.13076923076923;;;3.100000000000001;;
15557;SDS011;7880;50.110;9.372;2023-05-27T13:35:37;4.346153846153846;;;1.9615384615384621;;
15557;SDS011;7880;50.110;9.372;2023-05-27T13:40:43;5.769230769230769;;;2.469230769230769;;
15557;SDS011;7880;50.110;9.372;2023-05-27T13:45:49;5.200000000000001;;;2.838461538461538;;
15557;SDS011;7880;50.110;9.372;2023-05-27T13:50:55;5.838461538461538;;;2.630769230769231;;
15557;SDS011;7880;50.110;9.372;2023-05-27T13:56:01;6.907692307692309;;;2.1999999999999997;;
15557;SDS011;7880;50.110;9.372;2023-05-27T14:01:06;8.253846153846151;;;2.330769230769231;;
15557;SDS011;7880;50.110;9.372;2023-05-27T14:06:11;9.876923076923076;;;2.969230769230769;;
15557;SDS011;7880;50.110;9.372;2023-05-27T14:11:18;5.299999999999999;;;2.1000000000000005;;
15557;SDS011;7880;50.110;9.372;2023-05-27T14:16:26;7.338461538461539;;;2.7;;
15557;SDS011;7880;50.110;9.372;2023-05-27T14:21:28;9.038461538461538;;;2.3999999999999995;;
15557;SDS011;7880;50.110;9.372;2023-05-27T14:26:30;6.361538461538459;;;2.06923076923077;;
15557;SDS011;7880;50.110;9.372;2023-05-27T14:31:32;6.423076923076923;;;2.3999999999999995;;
15557;SDS011;7880;50.110;9.372;2023-05-27T14:36:36;6.407692307692309;;;2.169230769230769;;
15557;SDS011;7880;50.110;9.372;2023-05-27T14:41:42;4.8076923076923075;;;2.0692307692307694;;
15557;SDS011;7880;50.110;9.372;2023-05-27T14:46:46;3.100000000000001;;;1.9307692307692308;;
15557;SDS011;7880;50.110;9.372;2023-05-27T14:51:52;6.0076923076923086;;;2.469230769230769;;
15557;SDS011;7880;50.110;9.372;2023-05-27T14:56:57;5.700000000000002;;;2.569230769230769;;
15557;SDS011;7880;50.110;9.372;2023-05-27T15:02:02;5.200000000000001;;;2.1307692307692307;;
15557;SDS011;7880;50.110;9.372;2023-05-27T15:07:07;6.169230769230769;;;2.5;;
15557;SDS011;7880;50.110;9.372;2023-05-27T15:12:14;5.892307692307692;;;2.3000000000000003;;
15557;SDS011;7880;50.110;9.372;2023-05-27T15:17:21;5.938461538461538;;;2.3000000000000003;;
15557;SDS011;7880;50.110;9.372;2023-05-27T15:22:26;6.269230769230769;;;2.6000000000000005;;
15557;SDS011;7880;50.110;9.372;2023-05-27T15:27:31;9.961538461538462;;;2.430769230769231;;
15557;SDS011;7880;50.110;9.372;2023-05-27T15:32:42;4.6692307692307695;;;2.3999999999999995;;
15557;SDS011;7880;50.110;9.372;2023-05-27T15:37:41;4.723076923076923;;;2.4615384615384617;;
15557;SDS011;7880;50.110;9.372;2023-05-27T15:42:46;7.238461538461538;;;2.6000000000000005;;
15557;SDS011;7880;50.110;9.372;2023-05-27T15:47:54;4.838461538461538;;;2.269230769230769;;
15557;SDS011;7880;50.110;9.372;2023-05-27T15:52:57;4.130769230769232;;;1.8999999999999997;;
15557;SDS011;7880;50.110;9.372;2023-05-27T15:58:00;5.53076923076923;;;2.469230769230769;;
15557;SDS011;7880;50.110;9.372;2023-05-27T16:03:05;4.1000000000000005;;;1.9307692307692308;;
15557;SDS011;7880;50.110;9.372;2023-05-27T16:08:12;4.638461538461538;;;1.8000000000000005;;
15557;SDS011;7880;50.110;9.372;2023-05-27T16:13:17;3.2692307692307705;;;1.8999999999999997;;
15557;SDS011;7880;50.110;9.372;2023-05-27T16:18:23;3.630769230769232;;;2.1000000000000005;;
15557;SDS011;7880;50.110;9.372;2023-05-27T16:23:29;3.2;;;2.1999999999999997;;
15557;SDS011;7880;50.110;9.372;2023-05-27T16:28:38;7.876923076923076;;;2.369230769230769;;
15557;SDS011;7880;50.110;9.372;2023-05-27T16:33:40;5.607692307692309;;;1.8999999999999997;;
15557;SDS011;7880;50.110;9.372;2023-05-27T16:38:50;5.076923076923077;;;2.3999999999999995;;
15557;SDS011;7880;50.110;9.372;2023-05-27T16:43:50;5.361538461538462;;;2.3000000000000003;;
15557;SDS011;7880;50.110;9.372;2023-05-27T16:49:01;4.96923076923077;;;2.1307692307692307;;
15557;SDS011;7880;50.110;9.372;2023-05-27T16:53:59;4.299999999999999;;;2.630769230769231;;
15557;SDS011;7880;50.110;9.372;2023-05-27T16:59:03;6.961538461538459;;;2.8;;
15557;SDS011;7880;50.110;9.372;2023-05-27T17:04:10;4.369230769230769;;;2.669230769230769;;
15557;SDS011;7880;50.110;9.372;2023-05-27T17:09:16;7.007692307692308;;;2.569230769230769;;
15557;SDS011;7880;50.110;9.372;2023-05-27T17:14:22;8.13846153846154;;;3.100000000000001;;
15557;SDS011;7880;50.110;9.372;2023-05-27T17:19:29;6.976923076923078;;;2.569230769230769;;
15557;SDS011;7880;50.110;9.372;2023-05-27T17:24:36;8.538461538461538;;;2.6000000000000005;;
15557;SDS011;7880;50.110;9.372;2023-05-27T17:29:40;5.153846153846154;;;2.7307692307692295;;
15557;SDS011;7880;50.110;9.372;2023-05-27T17:34:46;4.661538461538462;;;3.0;;
15557;SDS011;7880;50.110;9.372;2023-05-27T17:39:53;4.200000000000001;;;2.5;;
15557;SDS011;7880;50.110;9.372;2023-05-27T17:44:57;4.869230769230769;;;2.3999999999999995;;
15557;SDS011;7880;50.110;9.372;2023-05-27T17:50:03;3.56923076923077;;;2.330769230769231;;
15557;SDS011;7880;50.110;9.372;2023-05-27T17:55:10;5.561538461538462;;;2.6000000000000005;;
15557;SDS011;7880;50.110;9.372;2023-05-27T18:00:14;4.407692307692309;;;2.3000000000000003;;
15557;SDS011;7880;50.110;9.372;2023-05-27T18:05:20;6.207692307692307;;;2.669230769230769;;
15557;SDS011;7880;50.110;9.372;2023-05-27T18:10:28;5.369230769230768;;;2.899999999999999;;
15557;SDS011;7880;50.110;9.372;2023-05-27T18:15:30;6.323076923076922;;;2.5;;
15557;SDS011;7880;50.110;9.372;2023-05-27T18:20:36;10.469230769230771;;;3.899999999999999;;
15557;SDS011;7880;50.110;9.372;2023-05-27T18:25:41;6.730769230769231;;;3.7000000000000006;;
15557;SDS011;7880;50.110;9.372;2023-05-27T18:30:47;8.13076923076923;;;3.5;;
15557;SDS011;7880;50.110;9.372;2023-05-27T18:35:59;9.846153846153847;;;3.2;;
15557;SDS011;7880;50.110;9.372;2023-05-27T18:40:59;5.869230769230768;;;2.7307692307692295;;
15557;SDS011;7880;50.110;9.372;2023-05-27T18:46:05;5.1000000000000005;;;3.130769230769232;;
15557;SDS011;7880;50.110;9.372;2023-05-27T18:51:10;7.007692307692308;;;3.7000000000000006;;
15557;SDS011;7880;50.110;9.372;2023-05-27T18:56:16;7.63846153846154;;;3.43076923076923;;
15557;SDS011;7880;50.110;9.372;2023-05-27T19:01:24;5.1000000000000005;;;3.0;;
15557;SDS011;7880;50.110;9.372;2023-05-27T19:06:27;5.292307692307694;;;3.7000000000000006;;
15557;SDS011;7880;50.110;9.372;2023-05-27T19:11:30;7.669230769230769;;;3.899999999999999;;
15557;SDS011;7880;50.110;9.372;2023-05-27T19:16:37;6.60769230769231;;;3.56923076923077;;
15557;SDS011;7880;50.110;9.372;2023-05-27T19:21:42;6.469230769230771;;;3.2307692307692295;;
15557;SDS011;7880;50.110;9.372;2023-05-27T19:26:46;4.769230769230769;;;3.0;;
15557;SDS011;7880;50.110;9.372;2023-05-27T19:31:35;5.776923076923079;;;3.399999999999999;;
15557;SDS011;7880;50.110;9.372;2023-05-27T19:36:40;6.369230769230768;;;3.100000000000001;;
15557;SDS011;7880;50.110;9.372;2023-05-27T19:41:48;4.438461538461538;;;3.0;;
15557;SDS011;7880;50.110;9.372;2023-05-27T19:46:49;11.576923076923082;;;3.7000000000000006;;
15557;SDS011;7880;50.110;9.372;2023-05-27T19:51:55;6.599999999999999;;;3.530769230769231;;
15557;SDS011;7880;50.110;9.372;2023-05-27T19:57:02;12.63846153846154;;;7.469230769230771;;
15557;SDS011;7880;50.110;9.372;2023-05-27T20:02:08;9.038461538461537;;;5.538461538461537;;
15557;SDS011;7880;50.110;9.372;2023-05-27T20:07:09;7.799999999999998;;;4.200000000000001;;
15557;SDS011;7880;50.110;9.372;2023-05-27T20:12:34;6.13846153846154;;;3.7692307692307705;;
15557;SDS011;7880;50.110;9.372;2023-05-27T20:17:21;5.538461538461541;;;3.869230769230768;;
15557;SDS011;7880;50.110;9.372;2023-05-27T20:22:27;8.33846153846154;;;4.200000000000001;;
15557;SDS011;7880;50.110;9.372;2023-05-27T20:27:33;7.869230769230768;;;3.7000000000000006;;
15557;SDS011;7880;50.110;9.372;2023-05-27T20:32:42;5.06923076923077;;;3.399999999999999;;
15557;SDS011;7880;50.110;9.372;2023-05-27T20:37:45;5.1000000000000005;;;3.3307692307692305;;
15557;SDS011;7880;50.110;9.372;2023-05-27T20:42:51;7.838461538461539;;;3.7692307692307705;;
15557;SDS011;7880;50.110;9.372;2023-05-27T20:47:57;6.038461538461541;;;3.100000000000001;;
15557;SDS011;7880;50.110;9.372;2023-05-27T20:53:06;4.6000000000000005;;;3.5;;
15557;SDS011;7880;50.110;9.372;2023-05-27T20:58:09;8.707692307692309;;;3.869230769230768;;
15557;SDS011;7880;50.110;9.372;2023-05-27T21:03:16;5.130769230769231;;;3.5;;
15557;SDS011;7880;50.110;9.372;2023-05-27T21:08:20;7.799999999999998;;;3.899999999999999;;
15557;SDS011;7880;50.110;9.372;2023-05-27T21:13:25;8.099999999999998;;;3.9615384615384617;;
15557;SDS011;7880;50.110;9.372;2023-05-27T21:18:31;8.10769230769231;;;4.200000000000001;;
15557;SDS011;7880;50.110;9.372;2023-05-27T21:23:37;7.492307692307692;;;4.8999999999999995;;
15557;SDS011;7880;50.110;9.372;2023-05-27T21:28:43;9.469230769230771;;;3.93076923076923;;
15557;SDS011;7880;50.110;9.372;2023-05-27T21:33:51;9.107692307692309;;;4.6000000000000005;;
15557;SDS011;7880;50.110;9.372;2023-05-27T21:38:52;6.469230769230771;;;4.23076923076923;;
15557;SDS011;7880;50.110;9.372;2023-05-27T21:43:56;9.723076923076924;;;4.361538461538462;;
15557;SDS011;7880;50.110;9.372;2023-05-27T21:49:01;5.538461538461541;;;3.600000000000001;;
15557;SDS011;7880;50.110;9.372;2023-05-27T21:54:06;9.89230769230769;;;4.23076923076923;;
15557;SDS011;7880;50.110;9.372;2023-05-27T21:59:11;4.93076923076923;;;3.93076923076923;;
15557;SDS011;7880;50.110;9.372;2023-05-27T22:04:17;7.353846153846155;;;3.761538461538461;;
15557;SDS011;7880;50.110;9.372;2023-05-27T22:09:24;6.93076923076923;;;3.8307692307692305;;
15557;SDS011;7880;50.110;9.372;2023-05-27T22:14:30;8.276923076923078;;;4.769230769230769;;
15557;SDS011;7880;50.110;9.372;2023-05-27T22:19:37;19.684615384615384;;;11.561538461538463;;
15557;SDS011;7880;50.110;9.372;2023-05-27T22:24:44;21.492307692307694;;;14.130769230769225;;
15557;SDS011;7880;50.110;9.372;2023-05-27T22:29:46;10.50769230769231;;;7.253846153846155;;
15557;SDS011;7880;50.110;9.372;2023-05-27T22:34:53;12.60769230769231;;;7.0;;
15557;SDS011;7880;50.110;9.372;2023-05-27T22:39:59;8.738461538461538;;;6.5;;
15557;SDS011;7880;50.110;9.372;2023-05-27T22:45:22;9.346153846153847;;;5.6;;
15557;SDS011;7880;50.110;9.372;2023-05-27T22:50:09;7.707692307692307;;;4.200000000000001;;
15557;SDS011;7880;50.110;9.372;2023-05-27T22:55:15;7.776923076923077;;;3.6692307692307695;;
15557;SDS011;7880;50.110;9.372;2023-05-27T23:00:25;7.5;;;3.899999999999999;;
15557;SDS011;7880;50.110;9.372;2023-05-27T23:05:25;8.261538461538464;;;4.299999999999999;;